Time;durP1;ratioP1;P1;durP2;ratioP2;P2;SDS_P1;SDS_P2;PMS_P1;PMS_P2;Temp;Humidity;BMP_temperature;BMP_pressure;BME280_temperature;BME280_humidity;BME280_pressure;Samples;Min_cycle;Max_cycle;Signal;HPM_P1;HPM_P2
2019/06/26 00:01:36;;;;;;;9.7;5.1;;;;;;;21.98;70.04785;945.3901;;;;
2019/06/26 00:04:10;;;;;;;10.2;4.9;;;;;;;22.15;69.29004;945.4548;;;;
2019/06/26 00:06:40;;;;;;;9.5;5.1;;;;;;;22.12;69.28516;945.4808;;;;
2019/06/26 00:09:21;;;;;;;7.1;5.2;;;;;;;22.2;69.0752;945.4398;;;;
2019/06/26 00:12:08;;;;;;;11;5.1;;;;;;;22.2;68.93457;945.4698;;;;
2019/06/26 00:14:52;;;;;;;9.8;5.2;;;;;;;22.15;69.19629;945.4548;;;;
2019/06/26 00:17:40;;;;;;;12.4;4.9;;;;;;;22.02;69.03516;945.4631;;;;
2019/06/26 00:20:27;;;;;;;10.6;5.6;;;;;;;21.91;69.70996;945.4639;;;;
2019/06/26 00:22:50;;;;;;;8.8;4.6;;;;;;;21.71;69.93652;945.4892;;;;
2019/06/26 00:25:13;;;;;;;10.8;5.1;;;;;;;21.82;69.75488;945.4319;;;;
2019/06/26 00:27:44;;;;;;;10.4;5.1;;;;;;;22.12;68.45313;945.4158;;;;
2019/06/26 00:30:09;;;;;;;11.6;5.5;;;;;;;22.15;68.69141;945.4469;;;;
2019/06/26 00:32:38;;;;;;;10.5;5.2;;;;;;;22.15;68.72656;945.4638;;;;
2019/06/26 00:35:15;;;;;;;9.1;5;;;;;;;22.16;68.55371;945.4489;;;;
2019/06/26 00:37:44;;;;;;;7.3;5.1;;;;;;;21.99;68.99609;945.3842;;;;
2019/06/26 00:40:08;;;;;;;11.7;5.3;;;;;;;21.6;70.45703;945.3828;;;;
2019/06/26 00:42:43;;;;;;;9.2;5.3;;;;;;;21.66;70.18555;945.3533;;;;
2019/06/26 00:45:12;;;;;;;12.7;5.3;;;;;;;21.74;69.87012;945.3565;;;;
2019/06/26 00:47:46;;;;;;;6.8;5.3;;;;;;;21.59;70.2207;945.4316;;;;
2019/06/26 00:50:26;;;;;;;10.4;5.4;;;;;;;21.19;71.44531;945.3516;;;;
2019/06/26 00:52:58;;;;;;;12.3;5.3;;;;;;;21.32;71.0791;945.3836;;;;
2019/06/26 00:55:31;;;;;;;10.5;5.4;;;;;;;21.5;70.54785;945.4553;;;;
2019/06/26 00:58:15;;;;;;;10;5.7;;;;;;;21.48;70.61328;945.4672;;;;
2019/06/26 01:00:47;;;;;;;12.5;5.9;;;;;;;21.42;70.69824;945.4478;;;;
2019/06/26 01:03:15;;;;;;;8.9;5.1;;;;;;;21.58;69.99707;945.4026;;;;
2019/06/26 01:05:37;;;;;;;10.5;5.4;;;;;;;21.43;70.27734;945.4002;;;;
2019/06/26 01:08:02;;;;;;;12.3;5.8;;;;;;;21.46;70.00195;945.4522;;;;
2019/06/26 01:10:43;;;;;;;9.6;5.5;;;;;;;21.53;69.99121;945.4036;;;;
2019/06/26 01:13:15;;;;;;;9.6;5.3;;;;;;;21.23;70.92578;945.4637;;;;
2019/06/26 01:15:48;;;;;;;9;5.6;;;;;;;20.95;71.59473;945.4756;;;;
2019/06/26 01:18:31;;;;;;;9;5.2;;;;;;;21.02;70.78613;945.468;;;;
2019/06/26 01:21:06;;;;;;;13.5;5.6;;;;;;;20.95;71.23145;945.4727;;;;
2019/06/26 01:23:43;;;;;;;11.6;5.3;;;;;;;21.07;71.53125;945.4786;;;;
2019/06/26 01:26:10;;;;;;;8.8;5.5;;;;;;;21.18;70.47266;945.4352;;;;
2019/06/26 01:28:38;;;;;;;9.7;5.3;;;;;;;20.57;72.05762;945.4279;;;;
2019/06/26 01:31:15;;;;;;;8.3;5.8;;;;;;;20.57;72.11523;945.4498;;;;
2019/06/26 01:33:35;;;;;;;11.7;5.6;;;;;;;20.72;71.41602;945.4611;;;;
2019/06/26 01:36:03;;;;;;;11.9;5.4;;;;;;;20.91;71.01367;945.4984;;;;
2019/06/26 01:38:52;;;;;;;11.9;5.4;;;;;;;20.74;71.58398;945.506;;;;
2019/06/26 01:41:23;;;;;;;12;5.5;;;;;;;20.69;71.5752;945.5386;;;;
2019/06/26 01:43:57;;;;;;;11.4;5.3;;;;;;;20.62;71.65723;945.5428;;;;
2019/06/26 01:46:30;;;;;;;11.4;5.3;;;;;;;20.7;71.64551;945.5206;;;;
2019/06/26 01:49:03;;;;;;;12.6;5.6;;;;;;;20.55;72.03125;945.5034;;;;
2019/06/26 01:51:39;;;;;;;11.4;5.5;;;;;;;20.32;73.03223;945.519;;;;
2019/06/26 02:00:14;;;;;;;12.2;5.5;;;;;;;20.43;72.3623;945.4757;;;;
2019/06/26 02:02:48;;;;;;;10.8;5.5;;;;;;;20.36;72.45703;945.5522;;;;
2019/06/26 02:05:22;;;;;;;12.5;5.8;;;;;;;20.25;72.63574;945.5056;;;;
2019/06/26 02:08:10;;;;;;;13.9;6.2;;;;;;;20.21;72.73535;945.5447;;;;
2019/06/26 02:10:50;;;;;;;12.5;5.9;;;;;;;20.05;72.95313;945.5125;;;;
2019/06/26 02:13:19;;;;;;;11.5;5.7;;;;;;;19.79;73.72656;945.5173;;;;
2019/06/26 02:15:51;;;;;;;13.6;5.7;;;;;;;19.77;73.85156;945.4814;;;;
2019/06/26 02:20:16;;;;;;;15.3;5.8;;;;;;;20.02;72.60938;945.4641;;;;
2019/06/26 02:21:05;;;;;;;15.6;6;;;;;;;20.02;72.17871;945.4684;;;;
2019/06/26 02:23:31;;;;;;;12.5;5.8;;;;;;;19.85;72.11621;945.5103;;;;
2019/06/26 02:26:06;;;;;;;14;5.8;;;;;;;20.03;71.7959;945.4973;;;;
2019/06/26 02:28:32;;;;;;;18;6;;;;;;;19.94;71.89551;945.4913;;;;
2019/06/26 02:31:12;;;;;;;10.7;5.4;;;;;;;19.95;71.85254;945.5331;;;;
2019/06/26 02:33:45;;;;;;;14.8;5.9;;;;;;;20.17;71.24707;945.5275;;;;
2019/06/26 02:36:16;;;;;;;13.3;5.2;;;;;;;19.86;72.11621;945.4965;;;;
2019/06/26 02:38:40;;;;;;;11.2;5.9;;;;;;;19.5;73.69043;945.5992;;;;
2019/06/26 02:41:33;;;;;;;14;6.1;;;;;;;19.37;74.40332;945.5538;;;;
2019/06/26 02:43:55;;;;;;;15.9;5.8;;;;;;;19.24;74.85938;945.582;;;;
2019/06/26 02:46:26;;;;;;;15.6;5.7;;;;;;;19.26;75.00195;945.627;;;;
2019/06/26 02:48:52;;;;;;;11.4;6;;;;;;;19.43;74.41211;945.6243;;;;
2019/06/26 02:51:25;;;;;;;11.5;5.9;;;;;;;19.37;74.47266;945.6353;;;;
2019/06/26 02:53:57;;;;;;;16;6.4;;;;;;;19.37;74.25195;945.6442;;;;
2019/06/26 02:56:34;;;;;;;17.8;6.7;;;;;;;19.28;74.52637;945.651;;;;
2019/06/26 02:59:10;;;;;;;12.2;6.2;;;;;;;19.23;74.72852;945.6177;;;;
2019/06/26 03:01:38;;;;;;;14;6.1;;;;;;;19.15;75.08691;945.6998;;;;
2019/06/26 03:04:14;;;;;;;11.7;6;;;;;;;19.09;75.2627;945.6731;;;;
2019/06/26 03:06:48;;;;;;;16.9;6.4;;;;;;;19.28;73.88672;945.6203;;;;
2019/06/26 03:09:45;;;;;;;11.2;5.4;;;;;;;19.23;73.80762;945.6435;;;;
2019/06/26 03:12:12;;;;;;;12.8;5.9;;;;;;;18.98;74.4541;945.7281;;;;
2019/06/26 03:14:42;;;;;;;16.4;5.9;;;;;;;18.99;74.39551;945.6716;;;;
2019/06/26 03:17:15;;;;;;;18.5;6.2;;;;;;;18.86;75.29395;945.7214;;;;
2019/06/26 03:19:42;;;;;;;15.3;5.8;;;;;;;18.78;75.02441;945.6912;;;;
2019/06/26 03:22:10;;;;;;;17;7.2;;;;;;;18.78;75.03711;945.6864;;;;
2019/06/26 03:24:50;;;;;;;16.7;7.6;;;;;;;18.88;74.68164;945.7486;;;;
2019/06/26 03:27:20;;;;;;;17.2;6.9;;;;;;;18.93;74.05957;945.7562;;;;
2019/06/26 03:29:57;;;;;;;20.8;7;;;;;;;19.29;72.6416;945.7654;;;;
2019/06/26 03:32:31;;;;;;;15.6;6.1;;;;;;;19.24;71.87598;945.7548;;;;
2019/06/26 03:34:59;;;;;;;17.3;6;;;;;;;19.21;71.54395;945.8098;;;;
2019/06/26 03:37:26;;;;;;;17;6.1;;;;;;;19.39;71.33008;945.8313;;;;
2019/06/26 03:39:56;;;;;;;13.8;5.3;;;;;;;19.52;70.97754;945.8599;;;;
2019/06/26 03:42:22;;;;;;;14.6;5.8;;;;;;;19.44;71.21094;945.877;;;;
2019/06/26 03:44:50;;;;;;;12.2;5.4;;;;;;;19.62;70.35254;945.8783;;;;
2019/06/26 03:47:33;;;;;;;15.2;5.4;;;;;;;19.51;68.0957;945.8439;;;;
2019/06/26 03:50:01;;;;;;;19.6;5.9;;;;;;;19.18;71.04004;945.9506;;;;
2019/06/26 03:52:33;;;;;;;17.9;5.9;;;;;;;19.14;71.49902;945.9381;;;;
2019/06/26 03:55:05;;;;;;;15.4;5.6;;;;;;;19.13;70.91504;945.9997;;;;
2019/06/26 03:57:42;;;;;;;18.8;5.5;;;;;;;19.08;71.55859;945.9155;;;;
2019/06/26 04:00:10;;;;;;;16.8;5.7;;;;;;;18.89;71.44629;946.0447;;;;
2019/06/26 04:08:52;;;;;;;15;5.8;;;;;;;19.03;71.53906;946.0201;;;;
2019/06/26 04:11:18;;;;;;;16.8;5.8;;;;;;;19.26;70.60938;946.0753;;;;
2019/06/26 04:13:47;;;;;;;17.3;6.1;;;;;;;19.44;69.70605;946.0629;;;;
2019/06/26 04:16:29;;;;;;;33.7;7.1;;;;;;;19.22;71.18555;946.0624;;;;
2019/06/26 04:19:03;;;;;;;17.3;5.9;;;;;;;19.13;71.52246;946.0981;;;;
2019/06/26 04:21:33;;;;;;;102.6;13.3;;;;;;;18.99;72.17285;946.1406;;;;
2019/06/26 04:26:49;;;;;;;82.9;13.2;;;;;;;19.57;71.05664;946.1383;;;;
2019/06/26 04:29:30;;;;;;;24.5;6.7;;;;;;;19.55;70.66895;946.153;;;;
2019/06/26 04:31:56;;;;;;;26;7.1;;;;;;;19.81;70.12598;946.2009;;;;
2019/06/26 04:34:28;;;;;;;22.7;6.6;;;;;;;19.84;69.94336;946.2145;;;;
2019/06/26 04:36:58;;;;;;;17.9;6;;;;;;;19.93;69.67773;946.2473;;;;
2019/06/26 04:39:23;;;;;;;20.3;6.2;;;;;;;20.05;69.06738;946.233;;;;
2019/06/26 04:41:53;;;;;;;20.4;5.9;;;;;;;19.97;68.78711;946.2896;;;;
2019/06/26 04:44:43;;;;;;;15.1;5.6;;;;;;;20.11;68.10938;946.2555;;;;
2019/06/26 04:47:20;;;;;;;16.4;6.3;;;;;;;20.16;67.78906;946.2928;;;;
2019/06/26 04:49:54;;;;;;;20.4;6;;;;;;;20.21;67.22559;946.2127;;;;
2019/06/26 04:52:36;;;;;;;21.1;5.9;;;;;;;20.39;65.6748;946.1967;;;;
2019/06/26 04:55:21;;;;;;;58.6;8.3;;;;;;;20.45;66.11621;946.1978;;;;
2019/06/26 04:57:59;;;;;;;58.7;8.1;;;;;;;20.49;66.05371;946.1892;;;;
2019/06/26 05:00:24;;;;;;;63.2;8.5;;;;;;;20.64;63.09668;946.1917;;;;
2019/06/26 05:03:10;;;;;;;62.4;8.7;;;;;;;20.75;63.95215;946.2304;;;;
2019/06/26 05:05:38;;;;;;;30;6.3;;;;;;;21.44;61.52344;946.1164;;;;
2019/06/26 05:08:06;;;;;;;34.3;6.5;;;;;;;22.33;58.73828;946.1943;;;;
2019/06/26 05:10:34;;;;;;;86.6;7.9;;;;;;;22.98;56.85254;946.1785;;;;
2019/06/26 05:13:02;;;;;;;47.2;6.7;;;;;;;23.79;54.38965;946.2017;;;;
2019/06/26 05:15:30;;;;;;;27.1;5.3;;;;;;;24.45;52.74902;946.0481;;;;
2019/06/26 05:18:05;;;;;;;19;5.3;;;;;;;25.27;51.0752;946.1516;;;;
2019/06/26 05:20:46;;;;;;;40.8;6;;;;;;;26.08;47.92676;946.1415;;;;
2019/06/26 05:23:12;;;;;;;18.9;5.1;;;;;;;26.67;46.26074;946.139;;;;
2019/06/26 05:25:37;;;;;;;19.8;4.7;;;;;;;27.1;44.70508;946.1448;;;;
2019/06/26 05:28:08;;;;;;;18.6;4.6;;;;;;;27.33;43.56543;946.1289;;;;
2019/06/26 05:30:29;;;;;;;36.5;5.3;;;;;;;27.69;43.69531;946.1753;;;;
2019/06/26 05:32:55;;;;;;;79.7;11.1;;;;;;;27.75;42.83496;946.1398;;;;
2019/06/26 05:35:29;;;;;;;17.3;4.8;;;;;;;28.27;44.76074;946.2028;;;;
2019/06/26 05:37:50;;;;;;;15.1;4.6;;;;;;;28.87;43.98926;946.1183;;;;
2019/06/26 05:40:19;;;;;;;17.4;4.8;;;;;;;29.2;41.16309;946.1142;;;;
2019/06/26 05:42:42;;;;;;;17.8;4.4;;;;;;;29.72;42.12793;946.1286;;;;
2019/06/26 05:45:21;;;;;;;18.7;5.1;;;;;;;30.23;39.72754;946.1403;;;;
2019/06/26 05:48:03;;;;;;;20.7;5;;;;;;;30.5;37.31543;946.1539;;;;
2019/06/26 05:50:31;;;;;;;22.9;5;;;;;;;30.94;38.6543;946.1689;;;;
2019/06/26 05:52:55;;;;;;;21.1;4.7;;;;;;;31.08;38.21191;946.1649;;;;
2019/06/26 05:55:26;;;;;;;21.8;5;;;;;;;30.99;39.00586;946.1692;;;;
2019/06/26 05:57:52;;;;;;;18.6;4.5;;;;;;;31.22;37.45801;946.2332;;;;
2019/06/26 06:00:17;;;;;;;21.4;4.6;;;;;;;31.56;38.43164;946.2342;;;;
2019/06/26 06:02:45;;;;;;;18.2;4.6;;;;;;;31.39;34.52832;946.2134;;;;
2019/06/26 06:05:19;;;;;;;19.5;4.5;;;;;;;31.45;34.79688;946.2562;;;;
2019/06/26 06:07:45;;;;;;;17.5;4.3;;;;;;;32.29;35.44824;946.2622;;;;
2019/06/26 06:10:37;;;;;;;14.9;4.2;;;;;;;32.3;32.30664;946.2385;;;;
2019/06/26 06:13:05;;;;;;;24.2;4.6;;;;;;;32.57;31.38965;946.2708;;;;
2019/06/26 06:15:30;;;;;;;20.4;4.7;;;;;;;32.79;32.77441;946.1841;;;;
2019/06/26 06:18:07;;;;;;;14.7;4.3;;;;;;;33.18;32.38184;946.1886;;;;
2019/06/26 06:20:34;;;;;;;18.9;4.5;;;;;;;32.62;32.4375;946.1705;;;;
2019/06/26 06:23:16;;;;;;;20.1;4.6;;;;;;;33.68;32.83789;946.2388;;;;
2019/06/26 06:25:44;;;;;;;20.5;4.5;;;;;;;33.69;32.64648;946.2717;;;;
2019/06/26 06:28:16;;;;;;;19.8;4.2;;;;;;;33.99;30.2002;946.2234;;;;
2019/06/26 06:30:40;;;;;;;18.2;4.1;;;;;;;32.89;32.34961;946.2203;;;;
2019/06/26 06:33:21;;;;;;;20.3;4.5;;;;;;;33.77;30.89551;946.2264;;;;
2019/06/26 06:35:54;;;;;;;15.7;4.3;;;;;;;34.71;29.05371;946.2363;;;;
2019/06/26 06:38:18;;;;;;;19.3;4.1;;;;;;;35.23;27.92871;946.2484;;;;
2019/06/26 06:40:47;;;;;;;15.4;4.2;;;;;;;35.58;29.97852;946.3002;;;;
2019/06/26 06:43:33;;;;;;;18.5;4.5;;;;;;;35.64;29.72949;946.2584;;;;
2019/06/26 06:46:03;;;;;;;15.1;4.2;;;;;;;33.72;28.125;946.2531;;;;
2019/06/26 06:48:28;;;;;;;18.4;4.5;;;;;;;32.32;30.00488;946.2042;;;;
2019/06/26 06:50:59;;;;;;;20;5;;;;;;;34.27;29.24316;946.1696;;;;
2019/06/26 06:53:32;;;;;;;18.5;4.7;;;;;;;34.8;29.36133;946.1813;;;;
2019/06/26 06:56:05;;;;;;;41.5;6.5;;;;;;;35.57;26.47656;946.2219;;;;
2019/06/26 06:58:35;;;;;;;69.7;9.7;;;;;;;36.35;25.00879;946.2816;;;;
2019/06/26 07:01:13;;;;;;;22;5.4;;;;;;;35.73;25.33691;946.1886;;;;
2019/06/26 07:03:52;;;;;;;20.4;4.8;;;;;;;36.4;30.08105;946.2769;;;;
2019/06/26 07:06:23;;;;;;;19.9;4.9;;;;;;;37.16;25.74316;946.1959;;;;
2019/06/26 07:09:01;;;;;;;29.7;5.7;;;;;;;37.54;25.60742;946.1272;;;;
2019/06/26 07:11:42;;;;;;;17.3;4.7;;;;;;;37.88;29.12305;946.2131;;;;
2019/06/26 07:14:17;;;;;;;20.8;4.3;;;;;;;38.22;26.14355;946.1692;;;;
2019/06/26 07:16:51;;;;;;;22.1;4.3;;;;;;;38.73;23.54492;946.2042;;;;
2019/06/26 07:19:23;;;;;;;22.9;4.7;;;;;;;39.01;24.69141;946.1696;;;;
2019/06/26 07:21:56;;;;;;;14.1;4.1;;;;;;;39.41;27.00293;946.171;;;;
2019/06/26 07:24:23;;;;;;;14.3;4;;;;;;;39.41;25.40723;946.1403;;;;
2019/06/26 07:26:51;;;;;;;18.3;4.3;;;;;;;38.32;22.16406;946.1273;;;;
2019/06/26 07:29:23;;;;;;;15.6;4.3;;;;;;;38.73;24.48242;946.0789;;;;
2019/06/26 07:31:48;;;;;;;15.4;3.9;;;;;;;38.93;24.78418;946.0076;;;;
2019/06/26 07:34:15;;;;;;;20.7;4.6;;;;;;;39.19;27.19629;946.019;;;;
2019/06/26 07:36:59;;;;;;;19;4.2;;;;;;;39.47;24.92285;946.0883;;;;
2019/06/26 07:39:32;;;;;;;18.6;4.1;;;;;;;39.87;25.05371;946.1021;;;;
2019/06/26 07:41:59;;;;;;;15.7;4.1;;;;;;;39.87;21.83594;946.0338;;;;
2019/06/26 07:44:25;;;;;;;18.6;4;;;;;;;39.88;21.84863;946.0378;;;;
2019/06/26 07:46:50;;;;;;;18.5;4.7;;;;;;;39.43;23.53223;946.0611;;;;
2019/06/26 07:49:17;;;;;;;18.3;4.3;;;;;;;39.95;23.22949;946.0583;;;;
2019/06/26 07:51:45;;;;;;;19.8;5.1;;;;;;;39.43;21.52246;946.0611;;;;
2019/06/26 07:54:22;;;;;;;20.1;4.3;;;;;;;38.49;26.08594;946.028;;;;
2019/06/26 07:56:56;;;;;;;18.4;4.1;;;;;;;39.48;23.12012;946.0106;;;;
2019/06/26 07:59:30;;;;;;;17.3;4.2;;;;;;;39.94;20.43652;946.0105;;;;
2019/06/26 08:01:59;;;;;;;14;4.2;;;;;;;38.96;23.62988;946.043;;;;
2019/06/26 08:04:24;;;;;;;18;4.7;;;;;;;39.14;19.80469;945.9936;;;;
2019/06/26 08:06:49;;;;;;;14.2;4.4;;;;;;;39.28;21.66211;945.9836;;;;
2019/06/26 08:09:27;;;;;;;16.3;4.5;;;;;;;37.81;22.55176;946.0055;;;;
2019/06/26 08:11:53;;;;;;;16.7;4.4;;;;;;;38.89;22.20313;945.9595;;;;
2019/06/26 08:14:24;;;;;;;14.1;3.9;;;;;;;39.5;21.5625;945.9581;;;;
2019/06/26 08:17:01;;;;;;;22.9;4.4;;;;;;;39.98;22.12109;945.9856;;;;
2019/06/26 08:19:42;;;;;;;16.9;4.1;;;;;;;40.89;19.53809;946.0276;;;;
2019/06/26 08:22:32;;;;;;;18;4.4;;;;;;;41.01;22.03613;946.0023;;;;
2019/06/26 08:25:05;;;;;;;22;4.4;;;;;;;40.99;21.86426;946.0645;;;;
2019/06/26 08:27:32;;;;;;;18.9;4.1;;;;;;;40.74;23.51367;946.0092;;;;
2019/06/26 08:30:01;;;;;;;16.7;4.2;;;;;;;40.66;26.28223;946.0345;;;;
2019/06/26 08:32:27;;;;;;;16.9;3.9;;;;;;;41.25;20.16406;945.9667;;;;
2019/06/26 08:35:03;;;;;;;15;4.5;;;;;;;41.68;20.86816;946.0023;;;;
2019/06/26 08:37:42;;;;;;;20.7;4.1;;;;;;;41.67;21.76172;945.9598;;;;
2019/06/26 08:40:10;;;;;;;18.5;4.1;;;;;;;41.57;21.45117;946.0054;;;;
2019/06/26 08:42:45;;;;;;;19.4;4.5;;;;;;;41.41;22.74023;945.92;;;;
2019/06/26 08:45:11;;;;;;;23.2;4.5;;;;;;;41.39;25.84668;945.9405;;;;
2019/06/26 08:47:36;;;;;;;17.5;4.3;;;;;;;40.97;23.95313;945.8686;;;;
2019/06/26 08:50:02;;;;;;;19.6;4.5;;;;;;;40.54;23.79688;945.8708;;;;
2019/06/26 08:52:34;;;;;;;21.2;4.4;;;;;;;40.71;22.62109;945.8992;;;;
2019/06/26 08:55:04;;;;;;;20.3;4.4;;;;;;;40.62;24.77734;945.8739;;;;
2019/06/26 08:57:35;;;;;;;19.4;4.3;;;;;;;39.69;25.3252;945.8517;;;;
2019/06/26 09:00:06;;;;;;;19.7;4.3;;;;;;;39.44;24.84863;945.8406;;;;
2019/06/26 09:02:34;;;;;;;17.9;4.1;;;;;;;39.2;25.90625;945.8308;;;;
2019/06/26 09:05:12;;;;;;;21.4;4.8;;;;;;;39.17;25.11328;945.8329;;;;
2019/06/26 09:07:36;;;;;;;16.4;4.1;;;;;;;39;26.24902;945.8299;;;;
2019/06/26 09:10:05;;;;;;;21.5;4.6;;;;;;;38.28;31.83301;945.9061;;;;
2019/06/26 09:12:34;;;;;;;20.2;4.5;;;;;;;38.53;28.58008;945.9139;;;;
2019/06/26 09:15:10;;;;;;;16.1;4.3;;;;;;;37.93;31.85742;945.8981;;;;
2019/06/26 09:17:37;;;;;;;19.6;4.4;;;;;;;37.04;34.12207;945.9;;;;
2019/06/26 09:20:06;;;;;;;21.9;4.6;;;;;;;36.87;30.5127;945.9586;;;;
2019/06/26 09:22:32;;;;;;;25.3;4.6;;;;;;;36.69;31.19043;945.925;;;;
2019/06/26 09:25:30;;;;;;;17;4.3;;;;;;;36.63;31.75488;945.8792;;;;
2019/06/26 09:27:58;;;;;;;20.8;4.1;;;;;;;36.34;30.37988;945.9034;;;;
2019/06/26 09:30:31;;;;;;;19.2;4.5;;;;;;;36.46;32.44531;945.9431;;;;
2019/06/26 09:33:29;;;;;;;17;4.9;;;;;;;36.19;31.79688;945.8917;;;;
2019/06/26 09:35:47;;;;;;;17.5;3.9;;;;;;;36.29;34.44141;945.9383;;;;
2019/06/26 09:38:15;;;;;;;16.3;4.2;;;;;;;36.46;32.28809;945.9258;;;;
2019/06/26 09:40:55;;;;;;;22.5;4.8;;;;;;;36.18;32.19629;945.9501;;;;
2019/06/26 09:43:16;;;;;;;18.9;4.6;;;;;;;36.17;31.2998;945.872;;;;
2019/06/26 09:45:42;;;;;;;22.6;5;;;;;;;35.8;30.58594;945.8575;;;;
2019/06/26 09:48:15;;;;;;;19.2;4.2;;;;;;;35.87;27.72656;945.8929;;;;
2019/06/26 09:50:39;;;;;;;17.3;4.2;;;;;;;36.17;33.15039;945.9078;;;;
2019/06/26 09:53:11;;;;;;;20.3;4.6;;;;;;;36.09;32.39453;945.901;;;;
2019/06/26 09:55:42;;;;;;;16.4;4.1;;;;;;;36.1;33.58105;945.8809;;;;
2019/06/26 09:58:12;;;;;;;19.3;4;;;;;;;35.92;34.7041;945.8791;;;;
2019/06/26 10:00:49;;;;;;;20.1;4.1;;;;;;;35.95;35.28711;945.8336;;;;
2019/06/26 10:03:21;;;;;;;15.1;4.1;;;;;;;35.85;33.2002;945.8614;;;;
2019/06/26 10:05:52;;;;;;;22;4.4;;;;;;;35.89;32.48926;945.8052;;;;
2019/06/26 10:08:18;;;;;;;15.8;3.8;;;;;;;35.92;30.47363;945.8698;;;;
2019/06/26 10:10:44;;;;;;;24.4;4.1;;;;;;;35.89;32.6709;945.788;;;;
2019/06/26 10:13:11;;;;;;;18;4.6;;;;;;;35.89;31.8252;945.8052;;;;
2019/06/26 10:15:37;;;;;;;21.5;4.4;;;;;;;35.78;32.0957;945.8074;;;;
2019/06/26 10:18:12;;;;;;;20;4.7;;;;;;;35.66;32.72754;945.8247;;;;
2019/06/26 10:20:40;;;;;;;15.4;4;;;;;;;35.69;31.56934;945.8549;;;;
2019/06/26 10:23:07;;;;;;;20.7;4.4;;;;;;;35.76;31.12695;945.7399;;;;
2019/06/26 10:25:39;;;;;;;18.8;4.2;;;;;;;35.79;31.63672;945.8417;;;;
2019/06/26 10:28:08;;;;;;;16.9;4.3;;;;;;;35.89;31.76367;945.7575;;;;
2019/06/26 10:30:41;;;;;;;19.5;4.4;;;;;;;35.97;32.20508;945.7723;;;;
2019/06/26 10:33:18;;;;;;;19.5;4.2;;;;;;;36.02;32.42578;945.7637;;;;
2019/06/26 10:35:56;;;;;;;24.8;4.6;;;;;;;36.1;35.21289;945.7443;;;;
2019/06/26 10:38:23;;;;;;;19.9;4.7;;;;;;;36.03;31.94336;945.7623;;;;
2019/06/26 10:40:54;;;;;;;20.9;4.3;;;;;;;35.76;31.46582;945.7891;;;;
2019/06/26 10:43:17;;;;;;;20.9;4.6;;;;;;;35.73;32.36914;945.7509;;;;
2019/06/26 10:45:47;;;;;;;18;4.3;;;;;;;35.67;29.58691;945.7438;;;;
2019/06/26 10:48:18;;;;;;;21.7;4.4;;;;;;;35.64;30.71973;945.7452;;;;
2019/06/26 10:50:43;;;;;;;18.3;4;;;;;;;35.57;29.9668;945.7672;;;;
2019/06/26 10:53:11;;;;;;;21.8;4.5;;;;;;;35.66;30.28711;945.6616;;;;
2019/06/26 10:55:37;;;;;;;20.3;4.5;;;;;;;35.54;30.29102;945.5686;;;;
2019/06/26 10:58:11;;;;;;;27.3;4.7;;;;;;;35.45;29.6084;945.6652;;;;
2019/06/26 11:00:49;;;;;;;20;4.4;;;;;;;35.28;28.78906;945.546;;;;
2019/06/26 11:03:26;;;;;;;22.1;4.2;;;;;;;35.18;29.16895;945.6076;;;;
2019/06/26 11:05:53;;;;;;;18.8;4;;;;;;;35.47;30.22656;945.657;;;;
2019/06/26 11:08:20;;;;;;;20.2;4.7;;;;;;;35.5;30.50488;945.634;;;;
2019/06/26 11:10:52;;;;;;;23.7;4.7;;;;;;;35.54;31.54688;945.6761;;;;
2019/06/26 11:13:24;;;;;;;17.6;4.5;;;;;;;35.41;31.9248;945.6508;;;;
2019/06/26 11:15:50;;;;;;;18.6;4.4;;;;;;;35.28;32.92871;945.6308;;;;
2019/06/26 11:18:15;;;;;;;16.2;4.4;;;;;;;35.45;31.70996;945.701;;;;
2019/06/26 11:20:47;;;;;;;29.5;4.7;;;;;;;35.43;31.98633;945.6599;;;;
2019/06/26 11:23:20;;;;;;;22.4;4.5;;;;;;;35.46;31.72266;945.6809;;;;
2019/06/26 11:25:48;;;;;;;23;4.5;;;;;;;35.5;33.18652;945.6077;;;;
2019/06/26 11:28:21;;;;;;;23.9;4.9;;;;;;;35.56;32.11621;945.5472;;;;
2019/06/26 11:30:47;;;;;;;18.8;4.2;;;;;;;35.4;31.95898;945.582;;;;
2019/06/26 11:33:21;;;;;;;19.1;4.2;;;;;;;35.58;33.01172;945.5655;;;;
2019/06/26 11:35:52;;;;;;;23.4;4.6;;;;;;;35.55;32.75488;945.5804;;;;
2019/06/26 11:38:15;;;;;;;23.4;4.5;;;;;;;35.53;29.96387;945.5263;;;;
2019/06/26 11:40:41;;;;;;;22.7;4.3;;;;;;;35.36;31.00293;945.5891;;;;
2019/06/26 11:43:15;;;;;;;20.3;4.7;;;;;;;35.3;31.50586;945.5073;;;;
2019/06/26 11:45:45;;;;;;;20.9;4.8;;;;;;;35.38;31.11328;945.5941;;;;
2019/06/26 11:48:11;;;;;;;19;4.6;;;;;;;35.55;30.6416;945.4797;;;;
2019/06/26 11:50:43;;;;;;;21;5;;;;;;;35.55;32.04297;945.4916;;;;
2019/06/26 11:53:16;;;;;;;22.4;4.6;;;;;;;35.57;30.74023;945.5365;;;;
2019/06/26 11:55:46;;;;;;;17.3;4.4;;;;;;;35.63;30.21191;945.4906;;;;
2019/06/26 11:58:20;;;;;;;20.2;4.6;;;;;;;35.5;30.48047;945.5242;;;;
2019/06/26 12:00:54;;;;;;;20.7;4.6;;;;;;;35.47;32.01367;945.4753;;;;
2019/06/26 12:03:18;;;;;;;18.4;4.6;;;;;;;35.55;32.69434;945.3948;;;;
2019/06/26 12:05:47;;;;;;;19.6;4.8;;;;;;;35.41;31.24805;945.3936;;;;
2019/06/26 12:08:31;;;;;;;24.4;4.9;;;;;;;35.61;31.9873;945.4006;;;;
2019/06/26 12:11:06;;;;;;;22.5;4.7;;;;;;;35.43;32.6377;945.3642;;;;
2019/06/26 12:13:57;;;;;;;19.6;4.7;;;;;;;35.59;32.97559;945.3613;;;;
2019/06/26 12:16:29;;;;;;;22.7;5;;;;;;;35.47;31.74805;945.3521;;;;
2019/06/26 12:18:59;;;;;;;22.4;4.8;;;;;;;35.67;30.08203;945.3287;;;;
2019/06/26 12:21:26;;;;;;;28;5.2;;;;;;;35.57;28.05859;945.343;;;;
2019/06/26 12:24:00;;;;;;;21.1;4.6;;;;;;;35.63;28.32715;945.2957;;;;
2019/06/26 12:26:31;;;;;;;25.2;5.1;;;;;;;35.6;29.55762;945.2523;;;;
2019/06/26 12:29:01;;;;;;;25.3;5;;;;;;;35.5;26.65332;945.2841;;;;
2019/06/26 12:31:27;;;;;;;22.8;5.2;;;;;;;35.69;27.70313;945.2051;;;;
2019/06/26 12:33:56;;;;;;;22.7;4.5;;;;;;;35.66;25.40625;945.2505;;;;
2019/06/26 12:36:18;;;;;;;26.3;5.1;;;;;;;35.59;26.46484;945.2021;;;;
2019/06/26 12:38:42;;;;;;;22.9;4.6;;;;;;;35.62;27.48242;945.1911;;;;
2019/06/26 12:41:16;;;;;;;24.5;5;;;;;;;35.58;28.04688;945.177;;;;
2019/06/26 12:43:41;;;;;;;24.8;5;;;;;;;35.54;28.17676;945.2028;;;;
2019/06/26 12:46:08;;;;;;;25.9;4.9;;;;;;;35.67;31.41113;945.1735;;;;
2019/06/26 12:48:44;;;;;;;23.2;4.6;;;;;;;35.72;31.34277;945.133;;;;
2019/06/26 12:51:05;;;;;;;27;5.2;;;;;;;35.72;27.29492;945.1065;;;;
2019/06/26 12:53:42;;;;;;;21.6;5.2;;;;;;;35.79;27.68555;945.1506;;;;
2019/06/26 12:56:06;;;;;;;23.8;5.3;;;;;;;35.91;28.97363;945.0899;;;;
2019/06/26 12:58:34;;;;;;;27.5;5;;;;;;;35.9;30.30273;945.0437;;;;
2019/06/26 13:01:02;;;;;;;23.7;4.6;;;;;;;36.04;31.60547;945.0695;;;;
2019/06/26 13:03:40;;;;;;;18.3;4.6;;;;;;;35.93;28.18945;944.9928;;;;
2019/06/26 13:06:04;;;;;;;27.1;4.9;;;;;;;35.92;28.17578;945.0488;;;;
2019/06/26 13:08:38;;;;;;;27.5;4.6;;;;;;;35.69;27.88379;945.0872;;;;
2019/06/26 13:11:01;;;;;;;20.9;5;;;;;;;35.62;29.74121;945.0943;;;;
2019/06/26 13:13:43;;;;;;;20.3;5;;;;;;;35.53;29.74609;945.0756;;;;
2019/06/26 13:16:13;;;;;;;24.3;5.3;;;;;;;35.43;27.63965;945.0142;;;;
2019/06/26 13:18:48;;;;;;;25.3;4.9;;;;;;;35.68;27.30371;944.9997;;;;
2019/06/26 13:21:21;;;;;;;21.7;4.7;;;;;;;35.89;28.34277;944.9881;;;;
2019/06/26 13:23:57;;;;;;;26.5;5.1;;;;;;;35.95;27.97266;944.9899;;;;
2019/06/26 13:26:29;;;;;;;21.1;4.6;;;;;;;35.65;28.18457;944.9867;;;;
2019/06/26 13:28:52;;;;;;;21.6;4.4;;;;;;;35.43;28.32813;944.9877;;;;
2019/06/26 13:31:22;;;;;;;24.3;4.8;;;;;;;35.44;28.08594;945.0314;;;;
2019/06/26 13:33:49;;;;;;;20.2;4.5;;;;;;;35.38;28.69824;944.9937;;;;
2019/06/26 13:36:16;;;;;;;22.1;4.4;;;;;;;35.4;29.41211;944.9802;;;;
2019/06/26 13:38:49;;;;;;;19.2;4.9;;;;;;;35.1;30.32129;944.9526;;;;
2019/06/26 13:41:16;;;;;;;23.6;4.7;;;;;;;35.1;30.9248;944.9526;;;;
2019/06/26 13:43:44;;;;;;;20.2;4.4;;;;;;;35.27;31.32324;944.9126;;;;
2019/06/26 13:46:12;;;;;;;27.3;5.1;;;;;;;35.28;29.83887;944.9005;;;;
2019/06/26 13:48:38;;;;;;;25;4.9;;;;;;;35.14;30.51758;944.8951;;;;
2019/06/26 13:51:06;;;;;;;18.8;4.3;;;;;;;35.09;30.75586;944.8348;;;;
2019/06/26 13:53:40;;;;;;;20.4;5.5;;;;;;;35.12;31.69922;944.926;;;;
2019/06/26 13:56:08;;;;;;;23.3;4.6;;;;;;;35.12;30.79395;944.8901;;;;
2019/06/26 13:58:36;;;;;;;21.5;4.9;;;;;;;35.14;32.71387;944.8156;;;;
2019/06/26 14:01:06;;;;;;;22.9;4.6;;;;;;;35.05;30.12598;944.7969;;;;
2019/06/26 14:03:47;;;;;;;24.6;4.6;;;;;;;35.15;32.31641;944.7745;;;;
2019/06/26 14:06:11;;;;;;;27.8;4.9;;;;;;;35.14;29.85449;944.7416;;;;
2019/06/26 14:08:52;;;;;;;22.1;4.6;;;;;;;35.12;29.15234;944.7364;;;;
2019/06/26 14:11:18;;;;;;;20.1;4.6;;;;;;;34.97;31.35059;944.7988;;;;
2019/06/26 14:13:50;;;;;;;23.4;4.5;;;;;;;34.89;31.62207;944.7216;;;;
2019/06/26 14:16:20;;;;;;;19.2;4.9;;;;;;;34.91;31.46777;944.7346;;;;
2019/06/26 14:18:54;;;;;;;21.4;4.5;;;;;;;34.93;29.52637;944.741;;;;
2019/06/26 14:21:21;;;;;;;20;4.6;;;;;;;34.86;30.28223;944.7391;;;;
2019/06/26 14:23:54;;;;;;;21.8;4.9;;;;;;;34.95;28.39355;944.6534;;;;
2019/06/26 14:26:33;;;;;;;20.2;4.4;;;;;;;34.88;29.47559;944.7534;;;;
2019/06/26 14:29:08;;;;;;;23;4.6;;;;;;;34.8;29.15723;944.7059;;;;
2019/06/26 14:31:32;;;;;;;23.4;4.6;;;;;;;34.79;30.74707;944.7206;;;;
2019/06/26 14:34:04;;;;;;;22.9;4.2;;;;;;;34.89;30.74219;944.6951;;;;
2019/06/26 14:36:31;;;;;;;22.6;5;;;;;;;34.81;30.58008;944.6873;;;;
2019/06/26 14:39:06;;;;;;;20.9;4.5;;;;;;;34.89;32.1416;944.6725;;;;
2019/06/26 14:41:41;;;;;;;17.3;4.1;;;;;;;34.82;31.01465;944.6767;;;;
2019/06/26 14:44:21;;;;;;;18.9;4.5;;;;;;;34.73;29.63379;944.7107;;;;
2019/06/26 14:46:51;;;;;;;22.7;4.2;;;;;;;34.8;31.52051;944.6397;;;;
2019/06/26 14:49:16;;;;;;;25.2;4.7;;;;;;;34.8;31.02637;944.653;;;;
2019/06/26 14:51:44;;;;;;;22.2;4.2;;;;;;;34.82;30.64063;944.6238;;;;
2019/06/26 14:54:12;;;;;;;19;4.1;;;;;;;34.77;30.75879;944.5753;;;;